sensor_id;sensor_type;location;lat;lon;timestamp;temperature;humidity
72646;DHT22;60687;53.876;10.674;2024-03-23T01:03:28;7.70;99.90
72646;DHT22;60687;53.876;10.674;2024-03-23T01:13:30;7.60;99.90
72646;DHT22;60687;53.876;10.674;2024-03-23T01:23:36;7.60;99.90
72646;DHT22;60687;53.876;10.674;2024-03-23T01:33:38;7.60;99.90
72646;DHT22;60687;53.876;10.674;2024-03-23T01:43:42;7.50;99.90
72646;DHT22;60687;53.876;10.674;2024-03-23T01:53:44;7.40;99.90
72646;DHT22;60687;53.876;10.674;2024-03-23T02:03:48;7.40;99.90
72646;DHT22;60687;53.876;10.674;2024-03-23T02:13:51;7.40;99.90
72646;DHT22;60687;53.876;10.674;2024-03-23T02:23:55;7.40;99.90
72646;DHT22;60687;53.876;10.674;2024-03-23T02:33:57;7.30;99.90
72646;DHT22;60687;53.876;10.674;2024-03-23T02:44:01;7.30;99.90
72646;DHT22;60687;53.876;10.674;2024-03-23T02:54:04;7.20;99.90
72646;DHT22;60687;53.876;10.674;2024-03-23T03:04:08;7.20;99.90
72646;DHT22;60687;53.876;10.674;2024-03-23T03:14:11;7.10;99.90
72646;DHT22;60687;53.876;10.674;2024-03-23T03:24:15;7.10;99.90
72646;DHT22;60687;53.876;10.674;2024-03-23T03:34:18;7.00;99.90
72646;DHT22;60687;53.876;10.674;2024-03-23T03:44:21;6.90;99.90
72646;DHT22;60687;53.876;10.674;2024-03-23T03:54:24;6.90;99.90
72646;DHT22;60687;53.876;10.674;2024-03-23T04:04:28;6.90;99.90
72646;DHT22;60687;53.876;10.674;2024-03-23T04:14:30;6.80;99.90
72646;DHT22;60687;53.876;10.674;2024-03-23T04:24:35;6.70;99.90
72646;DHT22;60687;53.876;10.674;2024-03-23T04:34:38;6.70;99.90
72646;DHT22;60687;53.876;10.674;2024-03-23T04:44:42;6.60;99.90
72646;DHT22;60687;53.876;10.674;2024-03-23T04:54:46;6.60;99.90
72646;DHT22;60687;53.876;10.674;2024-03-23T05:04:50;6.50;99.90
72646;DHT22;60687;53.876;10.674;2024-03-23T05:14:52;6.50;99.90
72646;DHT22;60687;53.876;10.674;2024-03-23T05:24:56;6.40;99.90
72646;DHT22;60687;53.876;10.674;2024-03-23T05:34:58;6.40;99.90
72646;DHT22;60687;53.876;10.674;2024-03-23T05:45:03;6.40;99.90
72646;DHT22;60687;53.876;10.674;2024-03-23T05:55:08;6.40;99.90
72646;DHT22;60687;53.876;10.674;2024-03-23T06:05:12;6.30;99.90
72646;DHT22;60687;53.876;10.674;2024-03-23T06:15:14;6.30;99.90
72646;DHT22;60687;53.876;10.674;2024-03-23T06:25:19;6.30;99.90
72646;DHT22;60687;53.876;10.674;2024-03-23T06:35:21;6.40;99.90
72646;DHT22;60687;53.876;10.674;2024-03-23T06:45:26;6.40;99.90
72646;DHT22;60687;53.876;10.674;2024-03-23T06:55:28;6.50;99.90
72646;DHT22;60687;53.876;10.674;2024-03-23T07:05:32;6.60;99.90
72646;DHT22;60687;53.876;10.674;2024-03-23T07:15:34;6.80;99.90
72646;DHT22;60687;53.876;10.674;2024-03-23T07:25:38;6.90;99.90
72646;DHT22;60687;53.876;10.674;2024-03-23T07:35:40;7.00;99.90
72646;DHT22;60687;53.876;10.674;2024-03-23T07:45:51;7.20;99.90
72646;DHT22;60687;53.876;10.674;2024-03-23T07:55:57;7.30;99.90
72646;DHT22;60687;53.876;10.674;2024-03-23T08:06:08;7.50;99.90
72646;DHT22;60687;53.876;10.674;2024-03-23T08:16:11;7.70;99.90
72646;DHT22;60687;53.876;10.674;2024-03-23T08:26:17;7.80;99.90
72646;DHT22;60687;53.876;10.674;2024-03-23T08:36:19;8.00;99.90
72646;DHT22;60687;53.876;10.674;2024-03-23T08:46:23;8.30;99.90
72646;DHT22;60687;53.876;10.674;2024-03-23T08:56:25;8.50;99.90
72646;DHT22;60687;53.876;10.674;2024-03-23T09:06:29;8.60;99.90
72646;DHT22;60687;53.876;10.674;2024-03-23T09:16:32;8.60;99.90
72646;DHT22;60687;53.876;10.674;2024-03-23T09:26:36;8.90;99.90
72646;DHT22;60687;53.876;10.674;2024-03-23T09:36:38;9.20;98.00
72646;DHT22;60687;53.876;10.674;2024-03-23T09:46:42;9.40;96.50
72646;DHT22;60687;53.876;10.674;2024-03-23T09:56:44;9.60;93.00
72646;DHT22;60687;53.876;10.674;2024-03-23T10:06:48;9.70;91.70
72646;DHT22;60687;53.876;10.674;2024-03-23T10:16:51;9.90;85.80
72646;DHT22;60687;53.876;10.674;2024-03-23T10:26:57;9.80;88.50
72646;DHT22;60687;53.876;10.674;2024-03-23T10:37:01;9.70;86.00
72646;DHT22;60687;53.876;10.674;2024-03-23T10:47:06;9.90;90.40
72646;DHT22;60687;53.876;10.674;2024-03-23T10:57:10;10.30;85.80
72646;DHT22;60687;53.876;10.674;2024-03-23T11:07:30;10.50;81.70
72646;DHT22;60687;53.876;10.674;2024-03-23T11:17:34;10.50;77.40
72646;DHT22;60687;53.876;10.674;2024-03-23T11:27:37;10.70;75.80
72646;DHT22;60687;53.876;10.674;2024-03-23T11:37:40;10.80;71.80
72646;DHT22;60687;53.876;10.674;2024-03-23T11:47:43;10.90;68.20
72646;DHT22;60687;53.876;10.674;2024-03-23T11:57:46;11.00;67.50
72646;DHT22;60687;53.876;10.674;2024-03-23T12:07:49;10.80;67.20
72646;DHT22;60687;53.876;10.674;2024-03-23T12:18:06;10.50;70.90
72646;DHT22;60687;53.876;10.674;2024-03-23T12:28:10;10.30;74.30
72646;DHT22;60687;53.876;10.674;2024-03-23T12:38:12;10.00;69.40
72646;DHT22;60687;53.876;10.674;2024-03-23T12:48:16;10.00;69.50
72646;DHT22;60687;53.876;10.674;2024-03-23T12:58:19;10.00;73.10
72646;DHT22;60687;53.876;10.674;2024-03-23T13:08:23;9.90;73.50
72646;DHT22;60687;53.876;10.674;2024-03-23T13:18:25;9.60;73.50
72646;DHT22;60687;53.876;10.674;2024-03-23T13:28:29;9.50;72.80
72646;DHT22;60687;53.876;10.674;2024-03-23T13:38:32;9.40;75.10
72646;DHT22;60687;53.876;10.674;2024-03-23T13:48:35;9.40;72.10
72646;DHT22;60687;53.876;10.674;2024-03-23T13:58:38;9.40;76.70
72646;DHT22;60687;53.876;10.674;2024-03-23T14:08:42;9.50;76.10
72646;DHT22;60687;53.876;10.674;2024-03-23T14:18:46;9.50;75.00
72646;DHT22;60687;53.876;10.674;2024-03-23T14:28:50;9.30;73.70
72646;DHT22;60687;53.876;10.674;2024-03-23T14:38:53;8.90;77.50
72646;DHT22;60687;53.876;10.674;2024-03-23T14:48:58;8.90;75.60
72646;DHT22;60687;53.876;10.674;2024-03-23T14:59:02;9.00;73.70
72646;DHT22;60687;53.876;10.674;2024-03-23T15:09:06;9.00;76.10
72646;DHT22;60687;53.876;10.674;2024-03-23T15:19:12;8.90;79.60
72646;DHT22;60687;53.876;10.674;2024-03-23T15:29:17;8.80;75.60
72646;DHT22;60687;53.876;10.674;2024-03-23T15:39:21;8.70;76.20
72646;DHT22;60687;53.876;10.674;2024-03-23T15:49:25;8.70;77.90
72646;DHT22;60687;53.876;10.674;2024-03-23T15:59:28;8.60;80.10
72646;DHT22;60687;53.876;10.674;2024-03-23T16:09:31;8.60;82.20
72646;DHT22;60687;53.876;10.674;2024-03-23T16:19:34;8.60;85.40
72646;DHT22;60687;53.876;10.674;2024-03-23T16:29:38;8.50;84.60
72646;DHT22;60687;53.876;10.674;2024-03-23T16:39:40;8.50;85.40
72646;DHT22;60687;53.876;10.674;2024-03-23T16:49:44;8.30;85.20
72646;DHT22;60687;53.876;10.674;2024-03-23T16:59:47;8.20;86.70
72646;DHT22;60687;53.876;10.674;2024-03-23T17:09:51;8.10;88.90
72646;DHT22;60687;53.876;10.674;2024-03-23T17:19:59;7.90;90.50
72646;DHT22;60687;53.876;10.674;2024-03-23T17:30:04;7.70;91.60
72646;DHT22;60687;53.876;10.674;2024-03-23T17:40:07;7.50;91.90
72646;DHT22;60687;53.876;10.674;2024-03-23T17:50:14;7.40;92.00
72646;DHT22;60687;53.876;10.674;2024-03-23T18:00:17;7.30;92.40
72646;DHT22;60687;53.876;10.674;2024-03-23T18:10:25;7.10;92.10
72646;DHT22;60687;53.876;10.674;2024-03-23T18:20:28;7.00;92.00
72646;DHT22;60687;53.876;10.674;2024-03-23T18:30:32;7.00;92.10
72646;DHT22;60687;53.876;10.674;2024-03-23T18:40:35;6.90;92.80
72646;DHT22;60687;53.876;10.674;2024-03-23T18:50:39;6.80;93.20
72646;DHT22;60687;53.876;10.674;2024-03-23T19:00:46;6.70;93.30
72646;DHT22;60687;53.876;10.674;2024-03-23T19:10:53;6.70;93.70
72646;DHT22;60687;53.876;10.674;2024-03-23T19:20:57;6.50;94.40
72646;DHT22;60687;53.876;10.674;2024-03-23T19:31:03;6.50;94.60
72646;DHT22;60687;53.876;10.674;2024-03-23T19:41:07;6.50;95.00
72646;DHT22;60687;53.876;10.674;2024-03-23T19:51:11;6.40;95.50
72646;DHT22;60687;53.876;10.674;2024-03-23T20:01:15;6.30;95.30
72646;DHT22;60687;53.876;10.674;2024-03-23T20:11:23;6.30;96.10
72646;DHT22;60687;53.876;10.674;2024-03-23T20:21:25;6.20;96.70
72646;DHT22;60687;53.876;10.674;2024-03-23T20:31:29;6.00;98.00
72646;DHT22;60687;53.876;10.674;2024-03-23T20:41:32;6.00;98.20
72646;DHT22;60687;53.876;10.674;2024-03-23T20:51:35;5.90;98.50
72646;DHT22;60687;53.876;10.674;2024-03-23T21:01:38;5.90;99.00
72646;DHT22;60687;53.876;10.674;2024-03-23T21:11:43;5.90;98.50
72646;DHT22;60687;53.876;10.674;2024-03-23T21:21:46;5.90;98.50
72646;DHT22;60687;53.876;10.674;2024-03-23T21:31:50;5.80;98.70
72646;DHT22;60687;53.876;10.674;2024-03-23T21:41:52;5.80;98.90
72646;DHT22;60687;53.876;10.674;2024-03-23T21:51:56;5.80;98.60
72646;DHT22;60687;53.876;10.674;2024-03-23T22:02:01;5.80;98.70
72646;DHT22;60687;53.876;10.674;2024-03-23T22:12:06;5.80;98.70
72646;DHT22;60687;53.876;10.674;2024-03-23T22:22:08;5.80;98.60
72646;DHT22;60687;53.876;10.674;2024-03-23T22:32:12;5.70;98.80
72646;DHT22;60687;53.876;10.674;2024-03-23T22:42:15;5.60;99.00
72646;DHT22;60687;53.876;10.674;2024-03-23T22:52:20;5.60;99.00
72646;DHT22;60687;53.876;10.674;2024-03-23T23:02:22;5.50;99.40
72646;DHT22;60687;53.876;10.674;2024-03-23T23:12:26;5.50;99.50
72646;DHT22;60687;53.876;10.674;2024-03-23T23:22:28;5.40;99.50
72646;DHT22;60687;53.876;10.674;2024-03-23T23:32:32;5.30;99.70
72646;DHT22;60687;53.876;10.674;2024-03-23T23:42:35;5.20;99.70
72646;DHT22;60687;53.876;10.674;2024-03-23T23:52:38;5.20;99.80
